Terminal Aerodrome Forecast
Issued by NWS Detroit/Pontiac, MI

Home | Current Version | Previous Version | Text Only | Print | Product List | Glossary On
Versions: 1 2 3 4 5 6 7 8 9 10 11 12 13 14
000
FTUS43 KDTX 180500
TAFFNT
TAF
KFNT 180532Z 1806/1906 22005KT P6SM OVC080
     FM180900 25005KT P6SM -SHRA SCT050 OVC070
     FM181200 27005KT P6SM BKN080
     FM181500 31005KT P6SM SCT050
     FM190000 03004KT P6SM SKC=

USA.gov is the U.S. government's official web portal to all federal, state and local government web resources and services.